Time;durP1;ratioP1;P1;durP2;ratioP2;P2;SDS_P1;SDS_P2;PMS_P1;PMS_P2;Temp;Humidity;BMP_temperature;BMP_pressure;BME280_temperature;BME280_humidity;BME280_pressure;Samples;Min_cycle;Max_cycle;Signal;HPM_P1;HPM_P2
2024/02/11 00:00:23;;;;;;;16.60;5.90;;;8.80;99.90;;;;;;5029244;28;20060;-60
2024/02/11 00:02:51;;;;;;;20.42;6.43;;;8.80;99.90;;;;;;5028972;28;20424;-62
2024/02/11 00:05:18;;;;;;;18.42;5.85;;;8.80;99.90;;;;;;5027104;28;20042;-63
2024/02/11 00:07:45;;;;;;;17.05;5.43;;;8.80;99.90;;;;;;5033008;28;20037;-61
2024/02/11 00:10:14;;;;;;;17.85;5.30;;;8.80;99.90;;;;;;5034393;28;20068;-62
2024/02/11 00:12:41;;;;;;;16.70;5.43;;;8.80;99.90;;;;;;5034120;28;20045;-62
2024/02/11 00:15:08;;;;;;;15.05;5.20;;;8.80;99.90;;;;;;5019384;28;20054;-62
2024/02/11 00:17:35;;;;;;;13.40;4.30;;;8.80;99.90;;;;;;5025611;28;20103;-62
2024/02/11 00:20:02;;;;;;;15.77;4.68;;;8.80;99.90;;;;;;5025360;28;20514;-62
2024/02/11 00:22:29;;;;;;;16.38;4.57;;;8.80;99.90;;;;;;5036530;28;20037;-61
2024/02/11 00:24:56;;;;;;;21.83;4.30;;;8.80;99.90;;;;;;5035826;28;20038;-63
2024/02/11 00:27:22;;;;;;;13.90;4.00;;;8.80;99.90;;;;;;5035301;28;20045;-63
2024/02/11 00:29:50;;;;;;;15.57;4.55;;;8.80;99.90;;;;;;5035237;28;20033;-63
2024/02/11 00:32:17;;;;;;;18.50;4.20;;;8.80;99.90;;;;;;5034777;28;20462;-62
2024/02/11 00:34:44;;;;;;;14.48;4.05;;;8.70;99.90;;;;;;5015353;28;20046;-62
2024/02/11 00:37:11;;;;;;;16.38;4.00;;;8.70;99.90;;;;;;5015614;28;20048;-62
2024/02/11 00:39:38;;;;;;;12.52;3.78;;;8.70;99.90;;;;;;5015564;28;20076;-62
2024/02/11 00:42:05;;;;;;;14.32;4.43;;;8.70;99.90;;;;;;5047599;28;20094;-62
2024/02/11 00:44:31;;;;;;;15.95;4.32;;;8.70;99.90;;;;;;5054747;28;20041;-62
2024/02/11 00:47:02;;;;;;;13.20;4.00;;;8.70;99.90;;;;;;5053300;28;20041;-62
2024/02/11 00:49:31;;;;;;;18.85;4.80;;;8.60;99.90;;;;;;5035238;28;20060;-62
2024/02/11 00:51:58;;;;;;;14.18;3.97;;;8.60;99.90;;;;;;5034932;28;20046;-63
2024/02/11 00:54:25;;;;;;;16.85;3.80;;;8.60;99.90;;;;;;5034515;28;20132;-63
2024/02/11 00:56:54;;;;;;;16.02;3.45;;;8.60;99.90;;;;;;5041099;28;20050;-62
2024/02/11 00:59:21;;;;;;;17.58;4.70;;;8.60;99.90;;;;;;5054527;28;20124;-63
2024/02/11 01:01:48;;;;;;;14.45;3.80;;;8.50;99.90;;;;;;5054695;28;20421;-63
2024/02/11 01:04:15;;;;;;;11.95;3.80;;;8.60;99.90;;;;;;5054307;28;20045;-63
2024/02/11 01:06:42;;;;;;;15.85;4.05;;;8.60;99.90;;;;;;5054513;28;20095;-64
2024/02/11 01:09:09;;;;;;;10.88;3.45;;;8.50;99.90;;;;;;5054387;28;20041;-64
2024/02/11 01:11:36;;;;;;;15.43;3.63;;;8.50;99.90;;;;;;5054283;28;20049;-64
2024/02/11 01:14:03;;;;;;;13.55;3.90;;;8.50;99.90;;;;;;5053879;28;20127;-63
2024/02/11 01:16:29;;;;;;;13.75;3.38;;;8.50;99.90;;;;;;5054485;28;20045;-62
2024/02/11 01:18:58;;;;;;;11.27;3.78;;;8.40;99.90;;;;;;5037341;28;20045;-62
2024/02/11 01:21:25;;;;;;;12.50;3.42;;;8.40;99.90;;;;;;5046484;28;20425;-62
2024/02/11 01:23:51;;;;;;;16.10;4.10;;;8.30;99.90;;;;;;5054117;28;20064;-62
2024/02/11 01:26:18;;;;;;;10.90;3.28;;;8.40;99.90;;;;;;5053935;28;20048;-62
2024/02/11 01:28:45;;;;;;;15.85;3.65;;;8.30;99.90;;;;;;5054231;28;20362;-62
2024/02/11 01:31:12;;;;;;;12.30;3.65;;;8.30;99.90;;;;;;5053870;28;20058;-63
2024/02/11 01:33:39;;;;;;;14.45;3.78;;;8.30;99.90;;;;;;5053847;28;20119;-62
2024/02/11 01:36:06;;;;;;;10.82;4.10;;;8.30;99.90;;;;;;5053990;28;20045;-62
2024/02/11 01:38:33;;;;;;;11.70;3.38;;;8.30;99.90;;;;;;5053829;28;20044;-62
2024/02/11 01:41:00;;;;;;;16.52;3.92;;;8.30;99.90;;;;;;5053775;28;20048;-62
2024/02/11 01:43:26;;;;;;;14.48;3.60;;;8.30;99.90;;;;;;5053970;28;20045;-62
2024/02/11 01:45:53;;;;;;;18.25;4.88;;;8.30;99.90;;;;;;5053800;28;20045;-62
2024/02/11 01:48:20;;;;;;;14.20;3.47;;;8.30;99.90;;;;;;5053756;28;20029;-62
2024/02/11 01:50:52;;;;;;;14.02;3.78;;;8.30;99.90;;;;;;5053766;28;20037;-62
2024/02/11 01:53:19;;;;;;;13.57;3.50;;;8.30;99.90;;;;;;5053786;28;20552;-62
2024/02/11 01:55:45;;;;;;;10.93;3.47;;;8.30;99.90;;;;;;5053732;28;20068;-63
2024/02/11 01:58:12;;;;;;;9.90;3.67;;;8.30;99.90;;;;;;5053431;28;20041;-62
2024/02/11 02:00:39;;;;;;;11.85;3.85;;;8.30;99.90;;;;;;5053748;28;20047;-62
2024/02/11 02:03:06;;;;;;;12.73;3.90;;;8.30;99.90;;;;;;5053128;28;20033;-63
2024/02/11 02:05:33;;;;;;;10.27;3.70;;;8.30;99.90;;;;;;5052929;28;20055;-62
2024/02/11 02:08:03;;;;;;;13.38;3.90;;;8.30;99.90;;;;;;5053107;28;20120;-62
2024/02/11 02:10:30;;;;;;;14.65;3.70;;;8.30;99.90;;;;;;5052646;28;20041;-62
2024/02/11 02:12:57;;;;;;;15.75;4.75;;;8.30;99.90;;;;;;5053232;28;20049;-62
2024/02/11 02:15:24;;;;;;;12.35;3.90;;;8.30;99.90;;;;;;5053442;28;20399;-61
2024/02/11 02:17:51;;;;;;;11.40;3.70;;;8.30;99.90;;;;;;5053549;28;20040;-62
2024/02/11 02:20:18;;;;;;;14.02;4.07;;;8.30;99.90;;;;;;5053050;28;20203;-61
2024/02/11 02:22:47;;;;;;;17.42;4.97;;;8.30;99.90;;;;;;5053345;28;20040;-62
2024/02/11 02:25:14;;;;;;;15.40;3.55;;;8.30;99.90;;;;;;5053241;28;20045;-61
2024/02/11 02:27:41;;;;;;;11.48;4.35;;;8.30;99.90;;;;;;5052017;28;20086;-62
2024/02/11 02:30:08;;;;;;;9.48;3.60;;;8.40;99.90;;;;;;5052073;28;20041;-62
2024/02/11 02:32:35;;;;;;;13.05;4.05;;;8.40;99.90;;;;;;5053448;28;20041;-61
2024/02/11 02:35:02;;;;;;;11.32;3.78;;;8.40;99.90;;;;;;5053124;28;20064;-62
2024/02/11 02:37:29;;;;;;;14.35;3.90;;;8.40;99.90;;;;;;5053320;28;20045;-61
2024/02/11 02:39:56;;;;;;;15.10;4.38;;;8.40;99.90;;;;;;5053459;28;20095;-60
2024/02/11 02:42:22;;;;;;;10.13;3.75;;;8.40;99.90;;;;;;5053134;28;20366;-63
2024/02/11 02:44:49;;;;;;;11.10;3.95;;;8.30;99.90;;;;;;5052888;28;20079;-63
2024/02/11 02:47:17;;;;;;;13.73;4.28;;;8.30;99.90;;;;;;5053265;28;20041;-63
2024/02/11 02:49:46;;;;;;;14.00;4.68;;;8.30;99.90;;;;;;5053411;28;20045;-63
2024/02/11 02:52:13;;;;;;;11.73;4.05;;;8.30;99.90;;;;;;5051945;28;20136;-63
2024/02/11 02:54:43;;;;;;;17.17;4.60;;;8.30;99.90;;;;;;5052886;28;20037;-62
2024/02/11 02:57:10;;;;;;;12.65;4.25;;;8.30;99.90;;;;;;5053122;28;20047;-62
2024/02/11 02:59:37;;;;;;;13.05;4.60;;;8.30;99.90;;;;;;5053082;28;20045;-63
2024/02/11 03:02:04;;;;;;;18.10;5.18;;;8.30;99.90;;;;;;5052893;28;20037;-63
2024/02/11 03:04:31;;;;;;;12.77;4.57;;;8.30;99.90;;;;;;5052722;28;20041;-63
2024/02/11 03:06:58;;;;;;;12.02;4.43;;;8.20;99.90;;;;;;5052863;28;20227;-62
2024/02/11 03:09:25;;;;;;;17.92;5.25;;;8.30;99.90;;;;;;5052837;28;20041;-63
2024/02/11 03:11:52;;;;;;;14.32;5.13;;;8.30;99.90;;;;;;5052500;28;20131;-63
2024/02/11 03:14:19;;;;;;;18.48;5.35;;;8.30;99.90;;;;;;5052492;28;20080;-63
2024/02/11 03:16:47;;;;;;;13.98;5.00;;;8.30;99.90;;;;;;5051580;28;20116;-62
2024/02/11 03:19:14;;;;;;;15.38;4.70;;;8.30;99.90;;;;;;5052750;28;20410;-62
2024/02/11 03:21:41;;;;;;;13.45;4.63;;;8.20;99.90;;;;;;5052973;28;20095;-63
2024/02/11 03:24:08;;;;;;;14.52;5.18;;;8.20;99.90;;;;;;5055562;28;20045;-63
2024/02/11 03:26:36;;;;;;;14.98;5.18;;;8.20;99.90;;;;;;5056341;28;20498;-62
2024/02/11 03:29:03;;;;;;;12.82;4.85;;;8.20;99.90;;;;;;5056604;28;20120;-63
2024/02/11 03:31:30;;;;;;;12.68;4.85;;;8.20;99.90;;;;;;5056169;28;20041;-63
2024/02/11 03:33:57;;;;;;;13.85;5.32;;;8.20;99.90;;;;;;5054929;28;20478;-61
2024/02/11 03:36:24;;;;;;;16.70;5.78;;;8.20;99.90;;;;;;5056172;28;20049;-61
2024/02/11 03:38:51;;;;;;;16.08;5.68;;;8.20;99.90;;;;;;5056132;28;20072;-61
2024/02/11 03:41:18;;;;;;;15.60;6.18;;;8.20;99.90;;;;;;5055095;28;20068;-61
2024/02/11 03:43:45;;;;;;;15.73;5.22;;;8.30;99.90;;;;;;5056074;28;20086;-61
2024/02/11 03:46:12;;;;;;;14.50;6.20;;;8.30;99.90;;;;;;5056061;28;20045;-61
2024/02/11 03:48:39;;;;;;;15.02;6.00;;;8.30;99.90;;;;;;5056301;28;20091;-61
2024/02/11 03:51:06;;;;;;;15.05;5.28;;;8.30;99.90;;;;;;5055978;28;20037;-61
2024/02/11 03:53:33;;;;;;;12.93;5.25;;;8.30;99.90;;;;;;5055660;28;20116;-61
2024/02/11 03:56:00;;;;;;;15.77;6.10;;;8.30;99.90;;;;;;5055766;28;20064;-61
2024/02/11 03:58:27;;;;;;;12.52;4.57;;;8.30;99.90;;;;;;5055969;28;20072;-60
2024/02/11 04:00:54;;;;;;;9.77;4.72;;;8.30;99.90;;;;;;5056113;28;20162;-60
2024/02/11 04:03:20;;;;;;;15.00;5.00;;;8.30;99.90;;;;;;5054643;28;20477;-62
2024/02/11 04:05:49;;;;;;;18.52;6.15;;;8.30;99.90;;;;;;5055598;28;20045;-62
2024/02/11 04:08:16;;;;;;;15.15;5.65;;;8.20;99.90;;;;;;5055785;28;20410;-63
2024/02/11 04:10:43;;;;;;;14.63;5.75;;;8.20;99.90;;;;;;5055838;28;20116;-62
2024/02/11 04:13:10;;;;;;;11.85;5.82;;;8.10;99.90;;;;;;5055597;28;20044;-63
2024/02/11 04:15:41;;;;;;;13.90;6.20;;;8.20;99.90;;;;;;5055449;28;20432;-63
2024/02/11 04:18:10;;;;;;;17.00;6.03;;;8.10;99.90;;;;;;5055305;28;20044;-63
2024/02/11 04:20:38;;;;;;;14.05;5.53;;;8.10;99.90;;;;;;5055559;28;20116;-63
2024/02/11 04:23:07;;;;;;;18.27;5.93;;;8.00;99.90;;;;;;5054873;28;20033;-63
2024/02/11 04:25:36;;;;;;;15.50;5.80;;;8.00;99.90;;;;;;5054857;28;20063;-63
2024/02/11 04:28:05;;;;;;;15.05;5.85;;;8.00;99.90;;;;;;5055090;28;20048;-63
2024/02/11 04:30:37;;;;;;;15.48;6.03;;;8.00;99.90;;;;;;5054839;28;20370;-63
2024/02/11 04:33:03;;;;;;;17.77;5.50;;;7.90;99.90;;;;;;5055091;28;20132;-63
2024/02/11 04:35:30;;;;;;;14.75;5.25;;;7.90;99.90;;;;;;5053466;28;20040;-63
2024/02/11 04:37:59;;;;;;;14.77;5.00;;;7.90;99.90;;;;;;5054812;28;20044;-63
2024/02/11 04:40:26;;;;;;;13.55;5.25;;;8.00;99.90;;;;;;5054872;28;20420;-63
2024/02/11 04:42:54;;;;;;;15.63;6.30;;;8.00;99.90;;;;;;5055218;28;20558;-63
2024/02/11 04:45:21;;;;;;;16.83;6.13;;;8.00;99.90;;;;;;5054900;28;20112;-63
2024/02/11 04:47:52;;;;;;;13.00;5.43;;;8.00;99.90;;;;;;5054997;28;20078;-63
2024/02/11 04:50:21;;;;;;;11.20;4.53;;;8.00;99.90;;;;;;5054971;28;20072;-62
2024/02/11 04:52:54;;;;;;;11.52;4.82;;;8.00;99.90;;;;;;5054625;28;20425;-62
2024/02/11 04:55:24;;;;;;;15.65;5.10;;;8.00;99.90;;;;;;5054628;28;20041;-62
2024/02/11 04:57:51;;;;;;;16.15;5.13;;;8.10;99.90;;;;;;5054626;28;20045;-62
2024/02/11 05:00:23;;;;;;;11.82;5.22;;;8.10;99.90;;;;;;5054611;28;20394;-62
2024/02/11 05:02:50;;;;;;;15.98;5.57;;;8.00;99.90;;;;;;5054819;28;20128;-62
2024/02/11 05:05:25;;;;;;;14.30;5.20;;;8.00;99.90;;;;;;5054443;28;20056;-62
2024/02/11 05:07:53;;;;;;;13.00;5.60;;;8.00;99.90;;;;;;5054524;28;20087;-62
2024/02/11 05:10:21;;;;;;;14.18;5.22;;;8.00;99.90;;;;;;5054515;28;20077;-62
2024/02/11 05:12:48;;;;;;;14.40;5.60;;;8.00;99.90;;;;;;5054415;28;20076;-62
2024/02/11 05:15:15;;;;;;;12.88;5.47;;;8.00;99.90;;;;;;5054305;28;20048;-62
2024/02/11 05:17:41;;;;;;;11.40;4.95;;;8.00;99.90;;;;;;5054275;28;20457;-62
2024/02/11 05:20:12;;;;;;;12.43;4.95;;;8.00;99.90;;;;;;5053106;28;20434;-63
2024/02/11 05:22:40;;;;;;;14.50;5.22;;;7.90;99.90;;;;;;5054138;28;20048;-63
2024/02/11 05:25:07;;;;;;;16.13;5.07;;;8.00;99.90;;;;;;5054371;28;20127;-63
2024/02/11 05:27:34;;;;;;;15.20;5.60;;;7.90;99.90;;;;;;5054233;28;20390;-63
2024/02/11 05:30:01;;;;;;;12.93;5.00;;;7.90;99.90;;;;;;5054256;28;20120;-62
2024/02/11 05:32:28;;;;;;;16.15;5.78;;;8.00;99.90;;;;;;5053936;28;20064;-62
2024/02/11 05:34:57;;;;;;;14.10;5.35;;;8.00;99.90;;;;;;5054016;28;20453;-62
2024/02/11 05:37:24;;;;;;;12.63;5.15;;;8.00;99.90;;;;;;5053942;28;20120;-61
2024/02/11 05:39:52;;;;;;;13.13;5.57;;;8.00;99.90;;;;;;5054037;28;20052;-61
2024/02/11 05:42:19;;;;;;;14.88;5.10;;;8.10;99.90;;;;;;5053862;28;20045;-61
2024/02/11 05:44:45;;;;;;;16.17;5.30;;;8.00;99.90;;;;;;5053799;28;20029;-62
2024/02/11 05:47:12;;;;;;;13.68;5.22;;;8.00;99.90;;;;;;5053439;28;20440;-62
2024/02/11 05:49:41;;;;;;;12.80;5.07;;;8.00;99.90;;;;;;5053849;28;20049;-61
2024/02/11 05:52:09;;;;;;;17.50;5.82;;;7.90;99.90;;;;;;5053775;28;20163;-62
2024/02/11 05:54:37;;;;;;;13.07;4.85;;;8.00;99.90;;;;;;5053769;28;20045;-62
2024/02/11 05:57:06;;;;;;;11.63;5.03;;;8.00;99.90;;;;;;5053774;28;20044;-61
2024/02/11 05:59:32;;;;;;;14.23;5.28;;;8.00;99.90;;;;;;5053489;28;20036;-62
2024/02/11 06:02:00;;;;;;;13.40;5.30;;;8.00;99.90;;;;;;5053398;28;20478;-62
2024/02/11 06:04:26;;;;;;;13.55;5.30;;;8.00;99.90;;;;;;5053204;28;20040;-61
2024/02/11 06:06:53;;;;;;;14.10;6.00;;;8.00;99.90;;;;;;5053469;28;20061;-61
2024/02/11 06:09:21;;;;;;;14.02;5.57;;;8.10;99.90;;;;;;5053615;28;20454;-62
2024/02/11 06:11:48;;;;;;;13.75;5.25;;;8.10;99.90;;;;;;5053495;28;20519;-61
2024/02/11 06:14:14;;;;;;;14.00;5.90;;;8.10;99.90;;;;;;5052984;28;20395;-62
2024/02/11 06:16:42;;;;;;;13.55;5.95;;;8.10;99.90;;;;;;5053634;28;20049;-63
2024/02/11 06:19:10;;;;;;;15.05;6.70;;;8.10;99.90;;;;;;5051974;28;20482;-63
2024/02/11 06:21:37;;;;;;;14.35;6.15;;;8.10;99.90;;;;;;5053487;28;20459;-63
2024/02/11 06:24:05;;;;;;;15.82;6.60;;;8.10;99.90;;;;;;5053021;28;20041;-63
2024/02/11 06:26:31;;;;;;;20.10;7.15;;;8.10;99.90;;;;;;5053400;28;20041;-63
2024/02/11 06:28:58;;;;;;;12.98;6.43;;;8.10;99.90;;;;;;5053272;28;20037;-62
2024/02/11 06:31:25;;;;;;;13.38;6.47;;;8.10;99.90;;;;;;5053097;28;20048;-62
2024/02/11 06:33:53;;;;;;;17.63;6.75;;;8.10;99.90;;;;;;5051487;28;20049;-62
2024/02/11 06:36:20;;;;;;;12.85;5.88;;;8.20;99.90;;;;;;5053516;28;20080;-61
2024/02/11 06:38:47;;;;;;;15.90;6.43;;;8.20;99.90;;;;;;5053174;28;20139;-62
2024/02/11 06:41:15;;;;;;;19.50;6.40;;;8.20;99.90;;;;;;5053379;28;20044;-63
2024/02/11 06:43:43;;;;;;;18.77;6.30;;;8.20;99.90;;;;;;5053091;28;20440;-63
2024/02/11 06:46:12;;;;;;;16.00;6.13;;;8.10;99.90;;;;;;5053234;28;20049;-61
2024/02/11 06:48:39;;;;;;;13.88;6.25;;;8.10;99.90;;;;;;5053012;28;20072;-61
2024/02/11 06:51:07;;;;;;;16.40;6.63;;;8.20;99.90;;;;;;5053059;28;20045;-61
2024/02/11 06:53:33;;;;;;;17.33;6.65;;;8.10;99.90;;;;;;5053444;28;20056;-61
2024/02/11 06:56:00;;;;;;;18.98;7.00;;;8.10;99.90;;;;;;5052823;28;20483;-61
2024/02/11 06:58:27;;;;;;;18.00;6.85;;;8.00;99.90;;;;;;5056468;28;20121;-61
2024/02/11 07:00:54;;;;;;;14.18;6.57;;;7.90;99.90;;;;;;5039389;28;20444;-61
2024/02/11 07:03:23;;;;;;;19.25;7.25;;;7.90;99.90;;;;;;5057080;28;20043;-61
2024/02/11 07:05:50;;;;;;;16.58;6.93;;;7.80;99.90;;;;;;5055682;28;20453;-61
2024/02/11 07:08:18;;;;;;;21.58;7.05;;;7.80;99.90;;;;;;5056789;28;20091;-60
2024/02/11 07:10:46;;;;;;;11.82;5.82;;;7.80;99.90;;;;;;5056851;28;20426;-60
2024/02/11 07:13:13;;;;;;;12.98;6.63;;;7.80;99.90;;;;;;5055493;28;20049;-61
2024/02/11 07:15:41;;;;;;;16.48;7.70;;;7.90;99.90;;;;;;5056437;28;20057;-60
2024/02/11 07:18:08;;;;;;;17.90;6.68;;;7.90;99.90;;;;;;5055217;28;20385;-61
2024/02/11 07:20:35;;;;;;;15.88;7.43;;;7.80;99.90;;;;;;5056428;28;20045;-60
2024/02/11 07:23:02;;;;;;;15.00;6.53;;;7.80;99.90;;;;;;5056381;28;20048;-60
2024/02/11 07:25:30;;;;;;;18.52;8.20;;;7.70;99.90;;;;;;5056549;28;20362;-62
2024/02/11 07:27:57;;;;;;;23.10;7.00;;;7.60;99.90;;;;;;5056395;28;20067;-62
2024/02/11 07:30:24;;;;;;;17.63;7.65;;;7.60;99.90;;;;;;5056466;28;20433;-62
2024/02/11 07:32:50;;;;;;;19.65;7.95;;;7.60;99.90;;;;;;5056491;28;20049;-63
2024/02/11 07:35:18;;;;;;;17.48;7.75;;;7.50;99.90;;;;;;5056023;28;20037;-63
2024/02/11 07:37:45;;;;;;;16.80;7.50;;;7.60;99.90;;;;;;5055894;28;20079;-64
2024/02/11 07:40:15;;;;;;;18.25;8.32;;;7.60;99.90;;;;;;5056377;28;20536;-63
2024/02/11 07:42:43;;;;;;;16.58;8.88;;;7.60;99.90;;;;;;5056017;28;20112;-63
2024/02/11 07:45:14;;;;;;;17.08;7.88;;;7.60;99.90;;;;;;5056350;28;20076;-63
2024/02/11 07:47:45;;;;;;;23.85;9.02;;;7.60;99.90;;;;;;5056226;28;20036;-63
2024/02/11 07:50:14;;;;;;;18.27;9.57;;;7.60;99.90;;;;;;5055904;28;20120;-61
2024/02/11 07:52:43;;;;;;;23.60;9.27;;;7.60;99.90;;;;;;5055976;28;20045;-61
2024/02/11 07:55:13;;;;;;;17.55;9.63;;;7.70;99.90;;;;;;5054689;28;20073;-61
2024/02/11 07:57:40;;;;;;;22.15;11.23;;;7.70;99.90;;;;;;5055942;28;20049;-61
2024/02/11 08:00:07;;;;;;;21.55;10.45;;;7.70;99.90;;;;;;5055772;28;20048;-63
2024/02/11 08:02:34;;;;;;;23.08;10.57;;;7.60;99.90;;;;;;5055797;28;20063;-63
2024/02/11 08:05:01;;;;;;;21.70;10.45;;;7.70;99.90;;;;;;5055566;28;20056;-62
2024/02/11 08:07:28;;;;;;;22.63;10.52;;;7.70;99.90;;;;;;5055879;28;20494;-62
2024/02/11 08:09:54;;;;;;;23.38;10.65;;;7.70;99.90;;;;;;5055165;28;20041;-61
2024/02/11 08:12:21;;;;;;;20.33;9.73;;;7.70;99.90;;;;;;5054498;28;20075;-62
2024/02/11 08:14:48;;;;;;;21.08;10.40;;;7.80;99.90;;;;;;5055474;28;20049;-62
2024/02/11 08:17:15;;;;;;;19.50;10.15;;;7.80;99.90;;;;;;5055489;28;20037;-63
2024/02/11 08:19:42;;;;;;;23.73;11.10;;;7.80;99.90;;;;;;5055520;28;20462;-62
2024/02/11 08:22:11;;;;;;;22.85;10.45;;;7.80;99.90;;;;;;5055306;28;20043;-61
2024/02/11 08:24:38;;;;;;;22.50;9.65;;;7.80;99.90;;;;;;5055140;28;20033;-62
2024/02/11 08:27:05;;;;;;;21.88;9.93;;;7.80;99.90;;;;;;5055385;28;20120;-63
2024/02/11 08:29:32;;;;;;;20.23;10.55;;;7.80;99.90;;;;;;5055547;28;20072;-62
2024/02/11 08:31:59;;;;;;;18.90;10.70;;;7.80;99.90;;;;;;5055117;28;20034;-62
2024/02/11 08:34:26;;;;;;;21.48;10.50;;;7.80;99.90;;;;;;5055089;28;20103;-62
2024/02/11 08:36:53;;;;;;;21.65;10.82;;;7.80;99.90;;;;;;5053736;28;20049;-61
2024/02/11 08:39:25;;;;;;;22.13;10.40;;;7.80;99.90;;;;;;5055213;28;20045;-62
2024/02/11 08:41:52;;;;;;;19.40;9.85;;;7.90;99.90;;;;;;5055085;28;20140;-63
2024/02/11 08:44:19;;;;;;;16.42;9.65;;;7.90;99.90;;;;;;5054754;28;20037;-63
2024/02/11 08:46:46;;;;;;;19.83;9.80;;;7.90;99.90;;;;;;5054996;28;20121;-62
2024/02/11 08:49:14;;;;;;;16.02;8.93;;;7.80;99.90;;;;;;5054985;28;20119;-62
2024/02/11 08:51:42;;;;;;;14.07;8.77;;;7.80;99.90;;;;;;5054770;28;20051;-63
2024/02/11 08:54:09;;;;;;;16.00;9.07;;;7.80;99.90;;;;;;5054680;28;20044;-63
2024/02/11 08:56:36;;;;;;;17.05;9.10;;;7.80;99.90;;;;;;5053321;28;20048;-63
2024/02/11 08:59:03;;;;;;;11.68;8.07;;;7.80;99.90;;;;;;5053185;28;20390;-63
2024/02/11 09:01:30;;;;;;;13.30;8.45;;;7.80;99.90;;;;;;5054321;28;20072;-63
2024/02/11 09:03:59;;;;;;;12.88;8.93;;;7.80;99.90;;;;;;5054249;28;20041;-63
2024/02/11 09:06:28;;;;;;;14.52;9.65;;;7.90;99.90;;;;;;5054489;28;20445;-63
2024/02/11 09:08:56;;;;;;;16.83;8.57;;;8.00;99.90;;;;;;5054465;28;20063;-63
2024/02/11 09:11:22;;;;;;;13.65;9.27;;;8.00;99.90;;;;;;5054472;28;20053;-63
2024/02/11 09:13:49;;;;;;;14.57;9.45;;;8.10;99.90;;;;;;5054220;28;20123;-63
2024/02/11 09:16:16;;;;;;;21.38;10.73;;;8.00;99.90;;;;;;5054040;28;20398;-63
2024/02/11 09:18:43;;;;;;;17.67;10.10;;;8.10;99.90;;;;;;5054137;28;20041;-63
2024/02/11 09:21:10;;;;;;;20.35;11.45;;;8.00;99.90;;;;;;5053230;28;20131;-63
2024/02/11 09:23:37;;;;;;;16.42;10.55;;;8.10;99.90;;;;;;5053957;28;20056;-62
2024/02/11 09:26:05;;;;;;;17.85;9.82;;;8.10;99.90;;;;;;5054279;28;20037;-62
2024/02/11 09:28:32;;;;;;;17.73;10.77;;;8.00;99.90;;;;;;5052974;28;20048;-61
2024/02/11 09:30:59;;;;;;;19.95;11.98;;;8.00;99.90;;;;;;5053862;28;20099;-61
2024/02/11 09:33:26;;;;;;;20.25;11.88;;;7.90;99.90;;;;;;5053856;28;20069;-61
2024/02/11 09:35:54;;;;;;;20.73;11.65;;;7.90;99.90;;;;;;5053694;28;20044;-61
2024/02/11 09:38:21;;;;;;;14.23;10.55;;;8.00;99.90;;;;;;5053874;28;20067;-61
2024/02/11 09:40:48;;;;;;;24.33;10.20;;;7.90;99.90;;;;;;5053937;28;20498;-61
2024/02/11 09:43:16;;;;;;;18.08;10.10;;;7.90;99.90;;;;;;5053579;28;20040;-62
2024/02/11 09:45:43;;;;;;;18.42;10.45;;;7.90;99.90;;;;;;5053596;28;20044;-62
2024/02/11 09:48:10;;;;;;;20.13;11.18;;;7.90;99.90;;;;;;5053916;28;20044;-62
2024/02/11 09:50:37;;;;;;;20.40;10.43;;;7.90;99.90;;;;;;5053591;28;20116;-63
2024/02/11 09:53:04;;;;;;;22.85;12.25;;;7.90;99.90;;;;;;5053495;28;20095;-63
2024/02/11 09:55:30;;;;;;;18.13;11.30;;;8.00;99.90;;;;;;5052132;28;20051;-61
2024/02/11 09:57:57;;;;;;;19.52;12.27;;;8.10;99.90;;;;;;5053210;28;20042;-61
2024/02/11 10:00:25;;;;;;;24.55;13.88;;;8.10;99.90;;;;;;5053681;28;20061;-61
2024/02/11 10:02:52;;;;;;;22.60;15.43;;;8.10;99.90;;;;;;5051897;28;20057;-62
2024/02/11 10:05:19;;;;;;;21.55;13.70;;;8.20;99.90;;;;;;5053210;28;20371;-62
2024/02/11 10:07:46;;;;;;;24.48;13.80;;;8.20;99.90;;;;;;5053683;28;20091;-62
2024/02/11 10:10:13;;;;;;;23.23;13.38;;;8.30;99.90;;;;;;5053496;28;20509;-64
2024/02/11 10:12:40;;;;;;;23.33;13.80;;;8.40;99.90;;;;;;5053404;28;20037;-63
2024/02/11 10:15:07;;;;;;;19.70;13.20;;;8.50;99.90;;;;;;5053022;28;20490;-63
2024/02/11 10:17:34;;;;;;;28.70;13.57;;;8.50;99.90;;;;;;5053006;28;20053;-64
2024/02/11 10:20:03;;;;;;;26.33;14.60;;;8.60;99.90;;;;;;5053139;28;20065;-65
2024/02/11 10:22:31;;;;;;;23.40;12.27;;;8.70;99.90;;;;;;5052615;28;20409;-65
2024/02/11 10:24:58;;;;;;;23.05;13.60;;;8.70;99.90;;;;;;5051564;28;20067;-62
2024/02/11 10:27:24;;;;;;;18.80;12.30;;;8.80;99.90;;;;;;5053338;28;20381;-62
2024/02/11 10:29:51;;;;;;;22.30;13.10;;;8.80;99.90;;;;;;5053526;28;20057;-62
2024/02/11 10:32:18;;;;;;;25.48;14.98;;;8.80;99.90;;;;;;5047470;28;20088;-63
2024/02/11 10:34:46;;;;;;;21.75;13.40;;;8.90;99.90;;;;;;5036872;28;20049;-63
2024/02/11 10:37:14;;;;;;;23.70;13.43;;;9.00;99.90;;;;;;5017550;28;20161;-62
2024/02/11 10:39:42;;;;;;;24.25;13.75;;;9.00;99.90;;;;;;5017945;28;20121;-63
2024/02/11 10:42:09;;;;;;;22.55;13.18;;;9.00;99.90;;;;;;5017436;28;20104;-62
2024/02/11 10:44:36;;;;;;;25.02;13.65;;;9.00;99.90;;;;;;5028307;28;20116;-63
2024/02/11 10:47:04;;;;;;;24.25;13.73;;;9.00;99.90;;;;;;5037180;28;20045;-64
2024/02/11 10:49:31;;;;;;;29.88;14.73;;;9.10;99.90;;;;;;5036431;28;20043;-63
2024/02/11 10:51:58;;;;;;;24.98;15.38;;;9.20;99.90;;;;;;5037163;28;20092;-64
2024/02/11 10:54:25;;;;;;;27.02;15.05;;;9.30;99.90;;;;;;5036947;28;20053;-63
2024/02/11 10:56:52;;;;;;;25.73;14.23;;;9.50;99.90;;;;;;5037230;28;20045;-63
2024/02/11 10:59:20;;;;;;;23.77;13.15;;;9.60;99.90;;;;;;5037036;28;20049;-63
2024/02/11 11:01:47;;;;;;;19.63;12.38;;;9.80;99.90;;;;;;5036860;28;20391;-64
2024/02/11 11:04:14;;;;;;;22.80;12.68;;;9.80;99.90;;;;;;5036910;28;20041;-63
2024/02/11 11:06:41;;;;;;;17.90;12.18;;;9.80;99.90;;;;;;5037134;28;20561;-63
2024/02/11 11:09:08;;;;;;;22.67;12.20;;;9.70;99.90;;;;;;5036944;28;20042;-63
2024/02/11 11:11:35;;;;;;;19.02;10.63;;;9.60;99.90;;;;;;5036794;28;20103;-63
2024/02/11 11:14:02;;;;;;;23.50;10.27;;;9.50;99.90;;;;;;5034330;28;20048;-63
2024/02/11 11:16:29;;;;;;;18.73;11.02;;;9.60;99.90;;;;;;5016751;28;20037;-63
2024/02/11 11:18:56;;;;;;;20.75;10.32;;;9.60;99.90;;;;;;5016762;28;20492;-64
2024/02/11 11:21:23;;;;;;;18.45;10.55;;;9.60;99.90;;;;;;5035139;28;20041;-65
2024/02/11 11:23:50;;;;;;;24.13;10.40;;;9.60;99.90;;;;;;5037000;28;20382;-62
2024/02/11 11:26:17;;;;;;;21.55;10.02;;;9.60;99.90;;;;;;5036381;28;20037;-62
2024/02/11 11:28:44;;;;;;;23.55;10.70;;;9.60;99.90;;;;;;5036480;28;20120;-62
2024/02/11 11:31:11;;;;;;;23.80;9.90;;;9.60;99.90;;;;;;5036388;28;20040;-62
2024/02/11 11:33:38;;;;;;;23.85;10.52;;;9.50;99.90;;;;;;5034877;28;20537;-62
2024/02/11 11:36:05;;;;;;;21.80;9.70;;;9.50;99.90;;;;;;5035225;28;20441;-60
2024/02/11 11:38:32;;;;;;;21.20;10.30;;;9.60;99.90;;;;;;5036515;28;20471;-62
2024/02/11 11:41:00;;;;;;;19.05;9.85;;;9.60;99.90;;;;;;5036550;28;20042;-62
2024/02/11 11:43:29;;;;;;;19.75;9.10;;;9.70;99.90;;;;;;5035286;28;20368;-64
2024/02/11 11:45:56;;;;;;;18.98;8.30;;;9.80;99.90;;;;;;5036138;28;20041;-64
2024/02/11 11:48:23;;;;;;;16.42;7.88;;;9.90;99.90;;;;;;5036176;28;20116;-64
2024/02/11 11:50:51;;;;;;;15.13;8.65;;;9.90;99.90;;;;;;5035998;28;20037;-63
2024/02/11 11:53:18;;;;;;;19.75;8.38;;;9.90;99.90;;;;;;5035875;28;20037;-63
2024/02/11 11:55:45;;;;;;;16.52;7.07;;;10.00;99.90;;;;;;5036023;28;20047;-64
2024/02/11 11:58:13;;;;;;;16.98;7.15;;;10.00;99.90;;;;;;5035504;28;20041;-64
2024/02/11 12:00:41;;;;;;;19.65;6.78;;;10.10;99.90;;;;;;5035980;28;20534;-62
2024/02/11 12:03:08;;;;;;;18.55;6.25;;;10.10;99.90;;;;;;5035160;28;20044;-64
2024/02/11 12:05:35;;;;;;;18.08;6.07;;;10.10;99.90;;;;;;5034942;28;20083;-61
2024/02/11 12:08:03;;;;;;;15.52;6.28;;;10.10;99.90;;;;;;5035929;28;20100;-61
2024/02/11 12:10:34;;;;;;;16.50;6.82;;;10.00;99.90;;;;;;5034291;28;20399;-61
2024/02/11 12:13:01;;;;;;;16.65;7.22;;;10.00;99.90;;;;;;5027979;28;20077;-63
2024/02/11 12:15:29;;;;;;;15.63;5.88;;;10.00;99.90;;;;;;5035272;28;20387;-61
2024/02/11 12:17:56;;;;;;;21.00;6.90;;;10.00;99.90;;;;;;5029134;28;20042;-63
2024/02/11 12:20:23;;;;;;;21.00;6.00;;;10.00;99.90;;;;;;5015972;28;20048;-62
2024/02/11 12:22:50;;;;;;;23.15;6.25;;;10.00;99.90;;;;;;5019184;28;20041;-63
2024/02/11 12:25:20;;;;;;;17.35;6.38;;;10.10;99.90;;;;;;5035146;28;20042;-63
2024/02/11 12:27:47;;;;;;;15.52;5.75;;;10.10;99.90;;;;;;5035236;28;20483;-64
2024/02/11 12:30:16;;;;;;;15.73;5.28;;;10.00;99.90;;;;;;5043416;28;20403;-64
2024/02/11 12:32:43;;;;;;;15.65;4.80;;;10.00;99.90;;;;;;5035633;28;20116;-65
2024/02/11 12:35:10;;;;;;;15.63;5.28;;;10.00;99.90;;;;;;5034707;28;20065;-64
2024/02/11 12:37:37;;;;;;;17.08;5.97;;;9.90;99.90;;;;;;5035318;28;20045;-64
2024/02/11 12:40:05;;;;;;;19.25;6.45;;;9.80;99.90;;;;;;5034673;28;20505;-64
2024/02/11 12:42:32;;;;;;;18.58;5.50;;;9.80;99.90;;;;;;5034994;28;20048;-64